Geneva, NY (14456)

8:36 PM EST on February 13, 2016 (GMT -0500)
KNYGENEV2 | | Change Station
CLOSE
Current Station
Personal Weather Station
Location: Geneva, NY
Elevation: 571 ft
Nearby Weather Stations
Active Advisory: Wind Chill Warning Active Notice: Public Information Statement

Elev 571 ft 42.85 °N, 76.99 °W | Updated 8 minutes ago

Overcast
Overcast
0.3 °F
Feels Like -13 °F
N
7.3
Wind Variable Wind from SSW

Today
High -- | Low -- °F
--% Chance of Precip.
Yesterday
High -- | Low -- °F
Precip. -- in
Pressure 30.29 in
Visibility 4.0 miles
Clouds Overcast 2600 ft
Windchill -13 °F
Dew Point -0 °F
Humidity 98%
Rainfall 0.00 in
Snow Depth Not available.
7:08 AM 5:36 PM
Waxing Crescent, 36% visible
SPECI KPEO 140115Z AUTO 29007G14KT 4SM HZ OVC026 M17/M22 A3029 RMK AO2 T11721217 TSNO
Pressure 30.29 in
Visibility 4.0 miles
Clouds Overcast 2600 ft
Windchill -13 °F
Dew Point -0 °F
Humidity 98%
Rainfall 0.00 in
Snow Depth Not available.
7:08 AM 5:36 PM
Waxing Crescent, 36% visible
SPECI KPEO 140115Z AUTO 29007G14KT 4SM HZ OVC026 M17/M22 A3029 RMK AO2 T11721217 TSNO

10-Day Weather Forecast

Almanac

Astronomy

Feb. 13, 2016 Rise Set
Actual Time
Civil Twilight
Nautical Twilight
Astronomical Twilight
Moon
Length of Visible Light
Length of Day
Tomorrow will be .
, % of the Moon is Illuminated

Today's Extremes

State Highs State Lows

Community

WunderPhotos

Upload Photos

1,892,723 photos uploaded!

WunderBlog® & News

Nearby

Air Quality

  Air Quality AQ Index Pollutant
Not available.

Snow Depth

Station Depth Elevation

Earthquake Activity

City Distance Mag. Time & Date
Minimum magnitude displayed is 2.5.

Coastal Water Temperatures

Place Temperature

Stations

Nearby Weather Stations

Station Location Temp. Windchill Dew Point Humidity Wind Precip. Elev Updated Type
                   

Watches & Warnings

Wind Chill Warning
Issued: 6:55 PM EST Feb. 13, 2016 – National Weather Service

... Wind chill warning remains in effect until 10 am EST Sunday...

* locations... Erie... Genesee... Wyoming... Livingston... Ontario...
Cattaraugus and Allegany counties.

* Timing... through late Sunday morning.

* Winds... northwest 15 to 25 mph.

* Wind chill values... as low as 30 below.

* Impacts... wind chills and temperatures will reach dangerously
cold levels. The frigid conditions could result in frozen
pipes... and will quickly lead to frostbite and hypothermia if
you are not properly dressed.

Precautionary/preparedness actions...

Stay tuned to NOAA Weather Radio or your favorite source of
weather information for the latest updates. Additional details
can also be found at www.Weather.Gov/Buffalo.

A wind chill warning is issued when a strong wind will combine
with cold temperatures to create dangerously cold conditions for
exposed skin. The wind will make it feel like it is 25 degrees
below zero or colder for several hours. Those planning to venture
outdoors should use common sense and dress warmly.